createdAt,value
2023-03-15T00:01:10.587Z,101034.66
2023-03-15T00:03:38.771Z,101032.03
2023-03-15T00:06:06.381Z,101041.63
2023-03-15T00:08:34.054Z,101029.41
2023-03-15T00:11:03.191Z,101038.09
2023-03-15T00:13:31.550Z,101038.97
2023-03-15T00:16:03.570Z,101035.53
2023-03-15T00:18:31.348Z,101032.09
2023-03-15T00:20:58.926Z,101034.84
2023-03-15T00:23:26.672Z,101029.72
2023-03-15T00:25:54.372Z,101028.91
2023-03-15T00:28:22.019Z,101035.06
2023-03-15T00:30:49.208Z,101042.09
2023-03-15T00:33:16.992Z,101048.22
2023-03-15T00:35:45.688Z,101050.97
2023-03-15T00:38:14.311Z,101051.00
2023-03-15T00:40:41.464Z,101054.56
2023-03-15T00:43:08.843Z,101052.09
2023-03-15T00:45:36.562Z,101057.38
2023-03-15T00:48:04.287Z,101056.56
2023-03-15T00:50:31.561Z,101055.84
2023-03-15T00:52:58.812Z,101055.88
2023-03-15T00:55:27.052Z,101048.06
2023-03-15T00:57:54.441Z,101049.81
2023-03-15T01:00:25.107Z,101046.31
2023-03-15T01:02:53.881Z,101052.25
2023-03-15T01:05:21.924Z,101060.84
2023-03-15T01:07:50.009Z,101060.81
2023-03-15T01:10:17.864Z,101057.19
2023-03-15T01:12:45.985Z,101062.31
2023-03-15T01:15:16.119Z,101061.44
2023-03-15T01:17:43.554Z,101067.53
2023-03-15T01:20:14.311Z,101071.84
2023-03-15T01:22:41.824Z,101069.19
2023-03-15T01:25:09.565Z,101065.69
2023-03-15T01:27:37.239Z,101068.16
2023-03-15T01:30:06.818Z,101068.88
2023-03-15T01:32:34.353Z,101075.63
2023-03-15T01:35:01.798Z,101071.25
2023-03-15T01:37:29.100Z,101084.19
2023-03-15T01:39:56.163Z,101085.88
2023-03-15T01:42:23.476Z,101085.84
2023-03-15T01:45:02.806Z,101085.00
2023-03-15T01:47:30.127Z,101089.34
2023-03-15T01:50:11.599Z,101091.09
2023-03-15T01:52:42.987Z,101088.47
2023-03-15T01:55:15.113Z,101084.03
2023-03-15T01:57:56.143Z,101089.19
2023-03-15T02:00:25.077Z,101084.75
2023-03-15T02:03:24.473Z,101084.75
2023-03-15T02:06:04.896Z,101091.66
2023-03-15T02:08:39.603Z,101089.06
2023-03-15T02:11:07.356Z,101091.63
2023-03-15T02:13:36.397Z,101094.19
2023-03-15T02:16:06.877Z,101098.59
2023-03-15T02:18:37.440Z,101100.41
2023-03-15T02:21:42.093Z,101110.00
2023-03-15T02:24:49.880Z,101110.00
2023-03-15T02:27:30.616Z,101122.03
2023-03-15T02:29:58.988Z,101132.41
2023-03-15T02:32:26.190Z,101129.59
2023-03-15T02:34:53.431Z,101125.88
2023-03-15T02:37:21.629Z,101126.59
2023-03-15T02:39:48.706Z,101132.56
2023-03-15T02:42:17.733Z,101116.81
2023-03-15T02:44:46.217Z,101130.63
2023-03-15T02:47:27.900Z,101129.59
2023-03-15T02:49:55.163Z,101139.91
2023-03-15T02:52:23.635Z,101140.63
2023-03-15T02:54:51.354Z,101153.53
2023-03-15T02:57:20.157Z,101150.91
2023-03-15T02:59:50.954Z,101149.13
2023-03-15T03:02:19.013Z,101154.34
2023-03-15T03:04:46.074Z,101155.22
2023-03-15T03:07:13.368Z,101162.13
2023-03-15T03:09:40.640Z,101162.06
2023-03-15T03:12:08.242Z,101168.97
2023-03-15T03:14:35.543Z,101172.47
2023-03-15T03:17:02.952Z,101173.38
2023-03-15T03:19:29.953Z,101174.25
2023-03-15T03:21:57.558Z,101176.88
2023-03-15T03:24:25.899Z,101189.88
2023-03-15T03:26:57.789Z,101195.94
2023-03-15T03:29:26.505Z,101197.66
2023-03-15T03:31:53.538Z,101198.47
2023-03-15T03:34:20.810Z,101200.13
2023-03-15T03:36:48.741Z,101199.13
2023-03-15T03:39:16.074Z,101205.91
2023-03-15T03:41:43.174Z,101211.84
2023-03-15T03:44:10.318Z,101210.72
2023-03-15T03:46:37.490Z,101215.69
2023-03-15T03:49:04.782Z,101209.38
2023-03-15T03:51:34.435Z,101209.16
2023-03-15T03:54:02.364Z,101213.25
2023-03-15T03:56:29.773Z,101206.97
2023-03-15T03:58:57.725Z,101215.44
2023-03-15T04:01:24.967Z,101223.88
2023-03-15T04:03:52.278Z,101226.28
2023-03-15T04:06:20.517Z,101236.53
2023-03-15T04:08:47.638Z,101232.84
2023-03-15T04:11:17.883Z,101241.38
2023-03-15T04:13:47.995Z,101255.03
2023-03-15T04:16:15.633Z,101254.88
2023-03-15T04:18:42.712Z,101250.38
2023-03-15T04:21:10.864Z,101267.56
2023-03-15T04:23:38.678Z,101263.03
2023-03-15T04:26:05.838Z,101271.59
2023-03-15T04:28:32.940Z,101265.41
2023-03-15T04:31:00.284Z,101270.47
2023-03-15T04:33:28.602Z,101272.94
2023-03-15T04:35:57.445Z,101275.50
2023-03-15T04:38:27.058Z,101285.72
2023-03-15T04:40:55.316Z,101281.25
2023-03-15T04:43:24.517Z,101293.19
2023-03-15T04:45:52.999Z,101294.09
2023-03-15T04:48:20.148Z,101289.59
2023-03-15T04:50:47.234Z,101299.09
2023-03-15T04:53:14.607Z,101295.50
2023-03-15T04:55:41.851Z,101291.91
2023-03-15T04:58:09.040Z,101302.19
2023-03-15T05:00:36.371Z,101299.53
2023-03-15T05:03:03.510Z,101300.25
2023-03-15T05:05:33.839Z,101298.44
2023-03-15T05:08:01.798Z,101307.00
2023-03-15T05:10:33.251Z,101311.22
2023-03-15T05:13:00.265Z,101317.97
2023-03-15T05:15:27.729Z,101319.56
2023-03-15T05:17:56.010Z,101322.88
2023-03-15T05:20:23.809Z,101324.53
2023-03-15T05:22:53.347Z,101336.56
2023-03-15T05:25:21.073Z,101335.56
2023-03-15T05:27:48.253Z,101348.44
2023-03-15T05:30:16.278Z,101347.47
2023-03-15T05:32:44.769Z,101344.88
2023-03-15T05:35:13.334Z,101350.03
2023-03-15T05:37:40.774Z,101353.44
2023-03-15T05:40:09.813Z,101346.41
2023-03-15T05:42:36.898Z,101354.19
2023-03-15T05:45:04.244Z,101348.09
2023-03-15T05:47:33.184Z,101354.09
2023-03-15T05:50:01.316Z,101350.69
2023-03-15T05:52:28.580Z,101357.56
2023-03-15T05:54:55.966Z,101349.06
2023-03-15T05:57:23.431Z,101354.25
2023-03-15T05:59:50.752Z,101365.47
2023-03-15T06:02:17.964Z,101381.09
2023-03-15T06:04:45.007Z,101375.91
2023-03-15T06:07:12.087Z,101377.59
2023-03-15T06:09:39.061Z,101384.56
2023-03-15T06:12:06.626Z,101383.88
2023-03-15T06:14:34.177Z,101389.13
2023-03-15T06:17:01.654Z,101384.09
2023-03-15T06:19:29.591Z,101391.06
2023-03-15T06:21:56.905Z,101395.53
2023-03-15T06:24:25.149Z,101397.41
2023-03-15T06:26:55.110Z,101412.28
2023-03-15T06:29:22.984Z,101406.44
2023-03-15T06:31:53.273Z,101418.84
2023-03-15T06:34:21.226Z,101425.41
2023-03-15T06:36:49.574Z,101434.41
2023-03-15T06:39:16.889Z,101439.13
2023-03-15T06:41:44.049Z,101447.44
2023-03-15T06:44:11.984Z,101448.09
2023-03-15T06:46:39.988Z,101456.63
2023-03-15T06:49:07.313Z,101462.47
2023-03-15T06:51:34.762Z,101463.03
2023-03-15T06:54:02.078Z,101469.56
2023-03-15T06:56:29.718Z,101471.66
2023-03-15T06:58:56.851Z,101479.75
2023-03-15T07:01:24.079Z,101477.41
2023-03-15T07:03:51.284Z,101476.13
2023-03-15T07:06:18.393Z,101475.53
2023-03-15T07:08:45.546Z,101482.81
2023-03-15T07:11:14.080Z,101485.78
2023-03-15T07:13:41.492Z,101483.47
2023-03-15T07:16:08.614Z,101496.94
2023-03-15T07:18:35.774Z,101499.78
2023-03-15T07:21:05.692Z,101506.13
2023-03-15T07:23:33.728Z,101508.03
2023-03-15T07:26:00.790Z,101522.09
2023-03-15T07:28:28.389Z,101515.22
2023-03-15T07:31:05.009Z,101519.59
2023-03-15T07:33:35.817Z,101530.19
2023-03-15T07:36:04.592Z,101527.94
2023-03-15T07:38:32.646Z,101538.72
2023-03-15T07:41:03.512Z,101540.94
2023-03-15T07:43:31.225Z,101549.13
2023-03-15T07:45:58.517Z,101544.13
2023-03-15T07:48:25.540Z,101548.78
2023-03-15T07:50:52.876Z,101545.53
2023-03-15T07:53:20.335Z,101550.16
2023-03-15T07:55:49.262Z,101553.69
2023-03-15T07:58:19.064Z,101566.81
2023-03-15T08:00:47.667Z,101569.47
2023-03-15T08:03:14.958Z,101568.66
2023-03-15T08:05:42.386Z,101576.53
2023-03-15T08:08:09.606Z,101581.84
2023-03-15T08:10:36.672Z,101582.72
2023-03-15T08:13:03.802Z,101583.69
2023-03-15T08:15:30.870Z,101596.66
2023-03-15T08:17:59.786Z,101601.59
2023-03-15T08:20:29.617Z,101599.53
2023-03-15T08:22:57.110Z,101609.13
2023-03-15T08:25:26.222Z,101600.75
2023-03-15T08:27:54.141Z,101610.56
2023-03-15T08:30:21.935Z,101615.75
2023-03-15T08:32:52.663Z,101609.75
2023-03-15T08:35:23.073Z,101615.19
2023-03-15T08:37:52.750Z,101617.00
2023-03-15T08:40:24.134Z,101619.84
2023-03-15T08:42:53.590Z,101622.59
2023-03-15T08:45:21.084Z,101615.81
2023-03-15T08:47:48.446Z,101620.41
2023-03-15T08:50:17.566Z,101622.38
2023-03-15T08:52:44.956Z,101626.13
2023-03-15T08:55:15.296Z,101639.44
2023-03-15T08:57:43.203Z,101631.84
2023-03-15T09:00:23.108Z,101634.69
2023-03-15T09:02:52.135Z,101641.00
2023-03-15T09:05:21.167Z,101642.91
2023-03-15T09:07:50.061Z,101642.28
2023-03-15T09:10:17.740Z,101645.97
2023-03-15T09:12:48.401Z,101647.06
2023-03-15T09:15:15.949Z,101653.34
2023-03-15T09:17:43.691Z,101657.97
2023-03-15T09:20:19.058Z,101659.94
2023-03-15T09:22:53.751Z,101654.09
2023-03-15T09:25:22.475Z,101653.44
2023-03-15T09:27:50.191Z,101649.41
2023-03-15T09:30:18.077Z,101656.88
2023-03-15T09:32:46.022Z,101652.38
2023-03-15T09:35:17.733Z,101660.06
2023-03-15T09:37:45.671Z,101666.97
2023-03-15T09:40:40.755Z,101663.06
2023-03-15T09:43:07.864Z,101662.25
2023-03-15T09:46:28.072Z,101659.63
2023-03-15T09:49:06.675Z,101664.19
2023-03-15T09:51:55.335Z,101662.97
2023-03-15T09:54:35.189Z,101661.00
2023-03-15T09:57:14.779Z,101662.97
2023-03-15T09:59:47.241Z,101674.06
2023-03-15T10:02:28.987Z,101681.09
2023-03-15T10:05:12.732Z,101677.22
2023-03-15T10:07:40.199Z,101672.34
2023-03-15T10:10:25.185Z,101661.19
2023-03-15T10:13:08.723Z,101661.34
2023-03-15T10:16:19.369Z,101664.16
2023-03-15T10:19:17.392Z,101668.59
2023-03-15T10:22:21.525Z,101677.38
2023-03-15T10:25:12.827Z,101665.31
2023-03-15T10:27:56.072Z,101666.38
2023-03-15T10:30:33.447Z,101669.22
2023-03-15T10:33:35.993Z,101672.03
2023-03-15T10:36:17.106Z,101673.03
2023-03-15T10:38:46.025Z,101677.47
2023-03-15T10:41:29.072Z,101682.66
2023-03-15T10:44:06.610Z,101685.06
2023-03-15T10:46:35.559Z,101685.25
2023-03-15T10:49:16.443Z,101689.13
2023-03-15T10:51:46.588Z,101691.91
2023-03-15T10:54:22.974Z,101698.63
2023-03-15T10:57:13.654Z,101703.53
2023-03-15T11:00:29.666Z,101713.00
2023-03-15T11:03:28.916Z,101713.81
2023-03-15T11:05:58.589Z,101722.31
2023-03-15T11:08:42.063Z,101722.03
2023-03-15T11:11:10.022Z,101730.47
2023-03-15T11:13:40.613Z,101728.38
2023-03-15T11:16:13.854Z,101730.59
2023-03-15T11:19:01.693Z,101737.28
2023-03-15T11:21:36.858Z,101743.31
2023-03-15T11:24:06.097Z,101752.84
2023-03-15T11:26:41.133Z,101748.25
2023-03-15T11:29:21.186Z,101749.91
2023-03-15T11:31:51.309Z,101748.03
2023-03-15T11:34:42.773Z,101747.94
2023-03-15T11:37:25.451Z,101753.03
2023-03-15T11:40:23.272Z,101745.13
2023-03-15T11:43:14.030Z,101748.47
2023-03-15T11:46:08.864Z,101745.56
2023-03-15T11:48:53.086Z,101747.09
2023-03-15T11:51:20.892Z,101744.13
2023-03-15T11:54:12.265Z,101737.75
2023-03-15T11:56:54.876Z,101741.94
2023-03-15T11:59:38.220Z,101729.78
2023-03-15T12:02:14.185Z,101735.19
2023-03-15T12:04:51.232Z,101722.41
2023-03-15T12:07:18.949Z,101719.53
2023-03-15T12:10:20.445Z,101728.00
2023-03-15T12:12:57.239Z,101722.53
2023-03-15T12:15:26.977Z,101714.31
2023-03-15T12:18:06.326Z,101719.94
2023-03-15T12:20:45.930Z,101717.81
2023-03-15T12:23:19.228Z,101729.59
2023-03-15T12:25:56.667Z,101734.28
2023-03-15T12:28:52.645Z,101728.50
2023-03-15T12:31:20.778Z,101730.41
2023-03-15T12:33:58.805Z,101731.38
2023-03-15T12:36:37.528Z,101729.50
2023-03-15T12:39:17.163Z,101732.03
2023-03-15T12:41:46.897Z,101736.16
2023-03-15T12:44:36.468Z,101728.13
2023-03-15T12:47:09.447Z,101726.47
2023-03-15T12:49:43.619Z,101739.63
2023-03-15T12:52:34.588Z,101732.63
2023-03-15T12:55:14.851Z,101733.63
2023-03-15T12:57:54.188Z,101734.53
2023-03-15T13:00:30.478Z,101737.25
2023-03-15T13:03:29.206Z,101741.75
2023-03-15T13:06:03.768Z,101736.44
2023-03-15T13:08:39.242Z,101732.78
2023-03-15T13:11:18.119Z,101724.94
2023-03-15T13:14:32.458Z,101729.53
2023-03-15T13:17:50.023Z,101733.94
2023-03-15T13:20:29.014Z,101739.31
2023-03-15T13:23:16.924Z,101731.41
2023-03-15T13:26:17.711Z,101729.66
2023-03-15T13:29:09.605Z,101731.50
2023-03-15T13:31:38.531Z,101729.59
2023-03-15T13:34:24.378Z,101732.16
2023-03-15T13:36:59.210Z,101730.56
2023-03-15T13:39:30.441Z,101722.63
2023-03-15T13:42:04.258Z,101724.50
2023-03-15T13:44:33.335Z,101724.63
2023-03-15T13:47:00.969Z,101726.50
2023-03-15T13:49:35.548Z,101725.63
2023-03-15T13:52:12.118Z,101728.44
2023-03-15T13:54:41.408Z,101725.03
2023-03-15T13:57:22.199Z,101731.28
2023-03-15T14:00:11.897Z,101730.56
2023-03-15T14:02:56.733Z,101730.56
2023-03-15T14:05:31.245Z,101728.03
2023-03-15T14:08:06.628Z,101728.13
2023-03-15T14:10:33.622Z,101738.75
2023-03-15T14:13:29.169Z,101737.94
2023-03-15T14:16:14.287Z,101734.44
2023-03-15T14:18:42.778Z,101731.78
2023-03-15T14:21:20.674Z,101731.78
2023-03-15T14:23:49.629Z,101738.84
2023-03-15T14:26:37.547Z,101728.28
2023-03-15T14:29:19.342Z,101724.78
2023-03-15T14:31:50.687Z,101728.22
2023-03-15T14:34:23.861Z,101732.63
2023-03-15T14:36:54.300Z,101740.59
2023-03-15T14:39:39.549Z,101741.50
2023-03-15T14:42:12.350Z,101730.13
2023-03-15T14:44:39.392Z,101735.34
2023-03-15T14:47:17.181Z,101743.25
2023-03-15T14:49:44.333Z,101730.06
2023-03-15T14:52:13.793Z,101729.19
2023-03-15T14:54:50.465Z,101728.31
2023-03-15T14:57:17.757Z,101730.13
2023-03-15T14:59:44.831Z,101719.59
2023-03-15T15:02:18.310Z,101731.88
2023-03-15T15:04:48.329Z,101727.47
2023-03-15T15:07:18.094Z,101718.66
2023-03-15T15:09:50.651Z,101719.50
2023-03-15T15:12:19.128Z,101716.88
2023-03-15T15:14:46.131Z,101716.06
2023-03-15T15:17:13.287Z,101716.06
2023-03-15T15:19:40.481Z,101716.94
2023-03-15T15:22:11.148Z,101701.94
2023-03-15T15:24:38.510Z,101706.31
2023-03-15T15:27:05.777Z,101701.03
2023-03-15T15:29:32.837Z,101705.38
2023-03-15T15:32:00.100Z,101704.53
2023-03-15T15:34:27.392Z,101702.75
2023-03-15T15:36:54.498Z,101701.00
2023-03-15T15:39:27.047Z,101700.13
2023-03-15T15:41:54.556Z,101693.06
2023-03-15T15:44:25.712Z,101693.00
2023-03-15T15:46:53.761Z,101687.72
2023-03-15T15:49:21.238Z,101683.28
2023-03-15T15:51:50.192Z,101685.88
2023-03-15T15:54:25.514Z,101690.22
2023-03-15T15:56:58.693Z,101693.69
2023-03-15T15:59:27.234Z,101682.13
2023-03-15T16:02:03.262Z,101682.13
2023-03-15T16:04:31.173Z,101677.66
2023-03-15T16:07:02.133Z,101685.56
2023-03-15T16:09:33.308Z,101682.84
2023-03-15T16:12:00.633Z,101687.06
2023-03-15T16:14:28.249Z,101686.03
2023-03-15T16:16:55.695Z,101680.72
2023-03-15T16:19:23.512Z,101679.78
2023-03-15T16:21:54.377Z,101678.03
2023-03-15T16:24:30.252Z,101681.53
2023-03-15T16:27:07.221Z,101678.09
2023-03-15T16:29:45.778Z,101686.78
2023-03-15T16:32:29.781Z,101691.06
2023-03-15T16:35:06.993Z,101689.94
2023-03-15T16:37:34.775Z,101681.00
2023-03-15T16:40:02.399Z,101688.66
2023-03-15T16:42:29.576Z,101691.06
2023-03-15T16:44:56.745Z,101690.88
2023-03-15T16:47:23.904Z,101687.16
2023-03-15T16:49:51.158Z,101694.84
2023-03-15T16:52:18.391Z,101690.25
2023-03-15T16:54:48.368Z,101692.72
2023-03-15T16:57:23.159Z,101691.63
2023-03-15T16:59:51.603Z,101689.69
2023-03-15T17:02:22.585Z,101687.78
2023-03-15T17:04:50.511Z,101691.97
2023-03-15T17:07:19.400Z,101697.88
2023-03-15T17:09:49.478Z,101698.56
2023-03-15T17:12:30.986Z,101698.38
2023-03-15T17:15:00.165Z,101693.84
2023-03-15T17:17:28.910Z,101697.16
2023-03-15T17:19:57.194Z,101692.63
2023-03-15T17:22:25.956Z,101698.59
2023-03-15T17:24:55.241Z,101695.78
2023-03-15T17:27:37.041Z,101700.00
2023-03-15T17:30:16.876Z,101696.31
2023-03-15T17:32:45.295Z,101705.81
2023-03-15T17:35:14.141Z,101704.75
2023-03-15T17:37:45.147Z,101702.84
2023-03-15T17:40:29.845Z,101703.56
2023-03-15T17:43:00.946Z,101698.19
2023-03-15T17:45:34.803Z,101697.19
2023-03-15T17:48:03.203Z,101696.13
2023-03-15T17:50:33.992Z,101696.06
2023-03-15T17:53:05.877Z,101705.53
2023-03-15T17:55:35.191Z,101706.31
2023-03-15T17:58:22.427Z,101707.09
2023-03-15T18:00:57.113Z,101713.09
2023-03-15T18:03:25.433Z,101711.25
2023-03-15T18:05:53.283Z,101712.94
2023-03-15T18:08:22.479Z,101717.25
2023-03-15T18:10:51.537Z,101715.41
2023-03-15T18:13:21.843Z,101718.84
2023-03-15T18:15:51.594Z,101717.88
2023-03-15T18:18:20.716Z,101714.34
2023-03-15T18:20:50.011Z,101713.44
2023-03-15T18:23:18.611Z,101707.25
2023-03-15T18:25:46.490Z,101707.16
2023-03-15T18:28:14.011Z,101703.63
2023-03-15T18:30:42.316Z,101704.41
2023-03-15T18:33:11.579Z,101707.81
2023-03-15T18:35:39.126Z,101697.28
2023-03-15T18:38:06.512Z,101702.53
2023-03-15T18:40:35.426Z,101700.66
2023-03-15T18:43:05.451Z,101704.13
2023-03-15T18:45:36.278Z,101705.78
2023-03-15T18:48:04.512Z,101707.44
2023-03-15T18:50:33.798Z,101698.63
2023-03-15T18:53:02.283Z,101703.00
2023-03-15T18:55:30.075Z,101700.28
2023-03-15T18:57:57.195Z,101695.84
2023-03-15T19:00:28.566Z,101694.03
2023-03-15T19:03:00.130Z,101693.97
2023-03-15T19:05:29.840Z,101694.72
2023-03-15T19:07:57.134Z,101693.81
2023-03-15T19:10:25.930Z,101698.97
2023-03-15T19:12:55.019Z,101698.94
2023-03-15T19:15:23.489Z,101691.00
2023-03-15T19:17:56.661Z,101685.66
2023-03-15T19:20:24.696Z,101689.03
2023-03-15T19:22:53.517Z,101692.44
2023-03-15T19:25:21.594Z,101695.00
2023-03-15T19:27:51.949Z,101687.09
2023-03-15T19:30:22.649Z,101694.03
2023-03-15T19:32:50.937Z,101682.66
2023-03-15T19:35:20.662Z,101681.75
2023-03-15T19:37:48.960Z,101678.22
2023-03-15T19:40:17.713Z,101687.69
2023-03-15T19:42:51.556Z,101683.22
2023-03-15T19:45:21.836Z,101683.06
2023-03-15T19:47:48.995Z,101685.59
2023-03-15T19:50:16.675Z,101687.16
2023-03-15T19:52:49.881Z,101680.00
2023-03-15T19:55:22.177Z,101693.69
2023-03-15T19:57:49.476Z,101694.38
2023-03-15T20:00:18.986Z,101685.50
2023-03-15T20:02:47.555Z,101687.09
2023-03-15T20:05:17.966Z,101689.53
2023-03-15T20:07:46.276Z,101684.94
2023-03-15T20:10:14.470Z,101691.81
2023-03-15T20:12:42.947Z,101687.28
2023-03-15T20:15:17.352Z,101687.09
2023-03-15T20:17:46.118Z,101686.97
2023-03-15T20:20:14.950Z,101685.13
2023-03-15T20:22:44.389Z,101687.59
2023-03-15T20:25:17.195Z,101694.59
2023-03-15T20:27:44.514Z,101699.72
2023-03-15T20:30:15.456Z,101696.19
2023-03-15T20:32:43.676Z,101693.56
2023-03-15T20:35:12.406Z,101696.16
2023-03-15T20:37:41.611Z,101697.00
2023-03-15T20:40:13.030Z,101688.19
2023-03-15T20:42:41.570Z,101692.53
2023-03-15T20:45:10.905Z,101693.38
2023-03-15T20:47:38.562Z,101699.44
2023-03-15T20:50:08.562Z,101695.88
2023-03-15T20:52:36.087Z,101691.44
2023-03-15T20:55:05.960Z,101683.50
2023-03-15T20:57:33.728Z,101683.44
2023-03-15T21:00:03.845Z,101681.63
2023-03-15T21:02:32.276Z,101679.84
2023-03-15T21:05:02.675Z,101679.75
2023-03-15T21:07:30.281Z,101676.25
2023-03-15T21:09:58.779Z,101673.59
2023-03-15T21:12:26.714Z,101661.38
2023-03-15T21:14:54.569Z,101670.94
2023-03-15T21:17:23.120Z,101666.47
2023-03-15T21:19:50.704Z,101673.38
2023-03-15T21:22:18.757Z,101670.66
2023-03-15T21:24:55.570Z,101667.13
2023-03-15T21:27:26.444Z,101662.56
2023-03-15T21:29:54.984Z,101663.25
2023-03-15T21:32:23.036Z,101661.34
2023-03-15T21:34:51.001Z,101659.44
2023-03-15T21:37:18.718Z,101659.34
2023-03-15T21:39:46.222Z,101660.94
2023-03-15T21:42:13.886Z,101659.91
2023-03-15T21:44:41.883Z,101651.06
2023-03-15T21:47:09.711Z,101654.41
2023-03-15T21:49:37.287Z,101649.09
2023-03-15T21:52:04.410Z,101643.69
2023-03-15T21:54:31.564Z,101644.53
2023-03-15T21:56:58.677Z,101646.13
2023-03-15T21:59:28.797Z,101642.53
2023-03-15T22:01:57.785Z,101632.88
2023-03-15T22:04:25.490Z,101634.47
2023-03-15T22:06:53.524Z,101637.88
2023-03-15T22:09:23.388Z,101649.91
2023-03-15T22:11:50.890Z,101648.13
2023-03-15T22:14:18.386Z,101636.75
2023-03-15T22:16:45.942Z,101637.47
2023-03-15T22:19:14.547Z,101632.22
2023-03-15T22:21:42.277Z,101631.25
2023-03-15T22:24:10.021Z,101631.19
2023-03-15T22:26:37.546Z,101621.50
2023-03-15T22:29:05.021Z,101627.59
2023-03-15T22:31:32.407Z,101624.88
2023-03-15T22:33:59.696Z,101626.59
2023-03-15T22:36:27.049Z,101628.25
2023-03-15T22:38:54.379Z,101618.72
2023-03-15T22:41:21.610Z,101616.94
2023-03-15T22:43:49.095Z,101624.75
2023-03-15T22:46:16.238Z,101626.44
2023-03-15T22:48:43.298Z,101622.09
2023-03-15T22:51:15.612Z,101622.88
2023-03-15T22:53:43.533Z,101628.91
2023-03-15T22:56:11.328Z,101619.31
2023-03-15T22:58:38.656Z,101624.47
2023-03-15T23:01:06.421Z,101627.06
2023-03-15T23:03:33.702Z,101634.94
2023-03-15T23:06:00.813Z,101627.91
2023-03-15T23:08:27.982Z,101628.00
2023-03-15T23:10:58.451Z,101629.88
2023-03-15T23:13:25.721Z,101629.88
2023-03-15T23:15:54.364Z,101640.41
2023-03-15T23:18:22.080Z,101636.03
2023-03-15T23:20:49.171Z,101628.31
2023-03-15T23:23:16.546Z,101619.78
2023-03-15T23:25:45.923Z,101621.59
2023-03-15T23:28:13.943Z,101617.28
2023-03-15T23:30:41.501Z,101626.03
2023-03-15T23:33:09.024Z,101613.09
2023-03-15T23:35:37.294Z,101612.28
2023-03-15T23:38:04.491Z,101611.50
2023-03-15T23:40:31.492Z,101601.19
2023-03-15T23:43:01.952Z,101610.03
2023-03-15T23:45:32.062Z,101605.75
2023-03-15T23:47:59.265Z,101609.41
2023-03-15T23:50:27.151Z,101610.34
2023-03-15T23:52:56.093Z,101603.47
2023-03-15T23:55:24.249Z,101599.13
2023-03-15T23:57:51.777Z,101600.09
